Time;durP1;ratioP1;P1;durP2;ratioP2;P2;SDS_P1;SDS_P2;PMS_P1;PMS_P2;Temp;Humidity;BMP_temperature;BMP_pressure;BME280_temperature;BME280_humidity;BME280_pressure;Samples;Min_cycle;Max_cycle;Signal;HPM_P1;HPM_P2
2023/05/03 00:00:50;;;;;;;7.72;3.40;;;;;;;7.09;69.60;102821.66;5019419;28;20046;-96
2023/05/03 00:03:15;;;;;;;5.95;3.00;;;;;;;7.10;70.10;102817.41;5019545;28;20030;-96
2023/05/03 00:05:41;;;;;;;5.15;2.80;;;;;;;7.10;70.73;102820.88;5017634;28;20022;-96
2023/05/03 00:08:06;;;;;;;6.63;3.40;;;;;;;7.10;69.97;102810.50;5021401;28;20057;-96
2023/05/03 00:10:32;;;;;;;8.02;3.28;;;;;;;7.09;69.71;102813.88;5015427;28;20415;-96
2023/05/03 00:12:57;;;;;;;6.65;3.00;;;;;;;7.07;69.59;102817.19;5017037;28;20029;-96
2023/05/03 00:15:25;;;;;;;7.13;3.20;;;;;;;7.03;69.75;102823.81;5007510;28;20117;-96
2023/05/03 00:17:50;;;;;;;7.90;3.17;;;;;;;7.00;69.91;102820.13;5007931;28;20487;-96
2023/05/03 00:20:18;;;;;;;7.25;4.00;;;;;;;6.97;69.58;102821.69;5014969;28;20017;-96
2023/05/03 00:22:43;;;;;;;6.25;3.15;;;;;;;6.96;70.19;102824.19;5016903;28;20033;-96
2023/05/03 00:25:09;;;;;;;7.38;3.20;;;;;;;6.95;70.30;102823.31;5011417;28;20554;-96
2023/05/03 00:27:35;;;;;;;6.70;3.33;;;;;;;6.93;69.92;102823.97;5015886;28;20026;-96
2023/05/03 00:30:00;;;;;;;5.25;3.10;;;;;;;6.88;70.37;102821.06;5016393;28;20033;-96
2023/05/03 00:32:25;;;;;;;6.30;3.15;;;;;;;6.85;70.58;102827.72;5018788;28;20027;-96
2023/05/03 00:34:52;;;;;;;5.72;3.10;;;;;;;6.86;70.66;102826.94;5016080;28;20037;-96
2023/05/03 00:37:18;;;;;;;7.25;3.60;;;;;;;6.82;70.22;102819.72;5005738;28;20034;-96
2023/05/03 00:39:43;;;;;;;6.28;3.40;;;;;;;6.78;70.40;102819.50;5015298;28;20040;-96
2023/05/03 00:42:09;;;;;;;7.47;3.40;;;;;;;6.75;70.88;102815.81;5013078;28;20086;-96
2023/05/03 00:44:34;;;;;;;6.50;3.42;;;;;;;6.71;70.93;102819.88;5013090;28;20471;-96
2023/05/03 00:47:00;;;;;;;6.85;3.25;;;;;;;6.71;71.14;102838.00;5017722;28;20026;-96
2023/05/03 00:49:25;;;;;;;7.35;3.25;;;;;;;6.69;71.79;102828.31;5014883;28;20137;-96
2023/05/03 00:51:54;;;;;;;5.05;3.00;;;;;;;6.69;71.87;102829.22;5011200;28;20037;-96
2023/05/03 00:54:20;;;;;;;6.93;3.33;;;;;;;6.67;71.20;102824.72;5011675;28;20514;-96
2023/05/03 00:56:46;;;;;;;6.93;3.35;;;;;;;6.69;71.01;102824.06;5009882;28;21389;-94
2023/05/03 00:59:11;;;;;;;8.30;3.65;;;;;;;6.73;71.09;102825.16;5007481;28;20017;-93
2023/05/03 01:01:37;;;;;;;7.28;3.33;;;;;;;6.71;71.00;102809.50;5012429;28;20506;-93
2023/05/03 01:04:05;;;;;;;7.50;3.33;;;;;;;6.69;71.29;102812.75;5005267;28;20026;-94
2023/05/03 01:06:31;;;;;;;7.00;3.58;;;;;;;6.69;70.73;102813.69;5013297;28;20036;-94
2023/05/03 01:09:09;;;;;;;7.55;3.58;;;;;;;6.66;71.04;102816.03;5010244;28;20021;-95
2023/05/03 01:11:51;;;;;;;6.43;3.42;;;;;;;6.65;71.37;102810.75;5029788;28;20026;-95
2023/05/03 01:14:30;;;;;;;7.68;3.17;;;;;;;6.61;71.58;102820.00;5014606;28;20036;-95
2023/05/03 01:16:57;;;;;;;;;;;;;;;6.69;69.45;102816.28;5012011;28;20155;-95
2023/05/03 01:19:41;;;;;;;5.82;3.08;;;;;;;6.59;71.12;102819.00;5005582;28;19909;-95
2023/05/03 01:22:38;;;;;;;6.50;3.50;;;;;;;6.56;71.08;102818.75;5006339;28;20079;-96
2023/05/03 01:25:09;;;;;;;7.78;3.30;;;;;;;6.47;71.76;102821.59;4983024;28;20068;-94
2023/05/03 01:27:39;;;;;;;6.97;3.13;;;;;;;6.43;71.80;102819.56;5010808;28;20100;-96
2023/05/03 01:30:06;;;;;;;5.53;3.13;;;;;;;6.37;72.13;102825.22;5015365;28;20030;-96
2023/05/03 01:32:44;;;;;;;7.40;2.85;;;;;;;6.32;71.79;102828.25;5013538;28;20032;-96
2023/05/03 01:35:36;;;;;;;5.80;3.10;;;;;;;6.29;71.88;102834.09;5011398;28;20068;-96
2023/05/03 01:38:03;;;;;;;6.80;3.40;;;;;;;6.24;71.93;102833.78;4977917;28;20033;-96
2023/05/03 01:40:31;;;;;;;5.53;3.15;;;;;;;6.19;72.01;102826.47;5012946;28;20049;-96
2023/05/03 01:42:56;;;;;;;6.45;3.00;;;;;;;6.18;72.37;102835.00;5011253;28;20063;-96
2023/05/03 01:45:22;;;;;;;6.72;3.03;;;;;;;6.15;72.43;102827.91;5013158;28;20040;-96
2023/05/03 01:47:47;;;;;;;6.93;3.60;;;;;;;6.09;72.66;102830.94;5027937;28;20061;-96
2023/05/03 01:50:13;;;;;;;6.57;3.15;;;;;;;6.06;73.04;102832.41;5012444;28;20176;-96
2023/05/03 01:52:38;;;;;;;6.15;3.25;;;;;;;6.02;72.87;102830.38;5014183;28;20045;-96
2023/05/03 01:55:04;;;;;;;7.45;3.90;;;;;;;6.00;73.19;102832.84;5008401;28;20017;-96
2023/05/03 01:57:30;;;;;;;8.45;3.42;;;;;;;5.96;73.30;102837.66;5007861;28;20022;-96
2023/05/03 01:59:55;;;;;;;9.02;3.75;;;;;;;5.94;73.08;102827.19;5031253;28;20080;-96
2023/05/03 02:02:21;;;;;;;7.40;3.65;;;;;;;5.91;73.17;102830.44;5010662;28;20048;-96
2023/05/03 02:04:49;;;;;;;6.60;3.70;;;;;;;5.89;73.52;102832.03;5008401;28;20477;-96
2023/05/03 02:07:14;;;;;;;7.03;3.58;;;;;;;5.88;73.87;102834.47;5014977;28;20025;-94
2023/05/03 02:09:40;;;;;;;7.80;3.97;;;;;;;5.89;73.71;102834.63;5005875;28;20030;-94
2023/05/03 02:12:06;;;;;;;7.10;4.13;;;;;;;5.85;73.37;102826.50;5015764;28;20053;-94
2023/05/03 02:14:31;;;;;;;7.53;3.97;;;;;;;5.83;73.44;102833.25;5030260;28;20036;-95
2023/05/03 02:16:57;;;;;;;6.82;4.00;;;;;;;5.80;73.23;102835.63;5021890;28;20030;-93
2023/05/03 02:19:23;;;;;;;9.27;4.60;;;;;;;5.75;73.41;102823.22;5011621;28;20071;-94
2023/05/03 02:21:49;;;;;;;6.18;3.85;;;;;;;5.74;73.62;102823.13;5003391;28;20056;-94
2023/05/03 02:24:15;;;;;;;7.25;3.95;;;;;;;5.75;73.58;102825.81;5010731;28;20025;-94
2023/05/03 02:26:40;;;;;;;8.50;4.00;;;;;;;5.75;74.18;102823.22;5009825;28;20021;-94
2023/05/03 02:29:06;;;;;;;7.35;3.78;;;;;;;5.72;74.43;102820.41;5013396;28;20029;-94
2023/05/03 02:31:31;;;;;;;6.38;4.00;;;;;;;5.72;74.12;102820.41;5009556;28;20038;-94
2023/05/03 02:33:57;;;;;;;7.18;3.85;;;;;;;5.71;73.70;102813.44;5011424;28;20045;-94
2023/05/03 02:36:22;;;;;;;6.70;4.00;;;;;;;5.70;74.50;102813.31;5010353;28;20093;-94
2023/05/03 02:38:47;;;;;;;8.70;3.78;;;;;;;5.69;74.06;102803.75;5009770;28;20052;-94
2023/05/03 02:41:13;;;;;;;8.45;3.95;;;;;;;5.70;74.23;102800.38;5010087;28;20109;-94
2023/05/03 02:43:38;;;;;;;6.95;3.72;;;;;;;5.66;74.49;102799.28;5030543;28;20022;-94
2023/05/03 02:46:04;;;;;;;6.40;4.13;;;;;;;5.61;75.17;102792.84;5007551;28;20104;-94
2023/05/03 02:48:31;;;;;;;6.32;3.65;;;;;;;5.61;74.93;102784.19;5015952;28;20141;-94
2023/05/03 02:50:57;;;;;;;7.22;3.65;;;;;;;5.58;74.40;102784.84;5013048;28;20029;-93
2023/05/03 02:53:22;;;;;;;6.90;3.55;;;;;;;5.58;74.40;102790.03;5013154;28;20021;-95
2023/05/03 02:55:48;;;;;;;6.25;3.47;;;;;;;5.52;74.49;102774.06;5032919;28;20053;-95
2023/05/03 02:58:14;;;;;;;7.40;3.72;;;;;;;5.48;74.67;102767.75;5010640;28;20052;-95
2023/05/03 03:00:39;;;;;;;6.97;3.97;;;;;;;5.45;74.62;102770.09;5014271;28;20507;-95
2023/05/03 03:03:05;;;;;;;6.47;3.58;;;;;;;5.42;74.79;102768.94;5011540;28;20035;-95
2023/05/03 03:05:30;;;;;;;6.97;3.63;;;;;;;5.36;74.92;102767.72;5028220;28;20044;-96
2023/05/03 03:07:55;;;;;;;6.97;3.55;;;;;;;5.32;75.29;102776.03;5015466;28;20050;-96
2023/05/03 03:10:28;;;;;;;8.45;4.40;;;;;;;5.34;74.65;102781.31;5011338;28;20021;-96
2023/05/03 03:12:53;;;;;;;6.53;3.65;;;;;;;5.30;74.95;102787.94;5016384;28;20045;-96
2023/05/03 03:15:19;;;;;;;5.75;3.80;;;;;;;5.30;75.22;102793.13;5014711;28;20029;-96
2023/05/03 03:17:44;;;;;;;6.80;4.00;;;;;;;5.27;75.65;102794.53;5014939;28;20112;-94
2023/05/03 03:20:10;;;;;;;8.68;3.97;;;;;;;5.20;75.33;102788.91;5009145;28;20109;-94
2023/05/03 03:22:36;;;;;;;9.20;4.07;;;;;;;5.17;75.38;102780.00;5017835;28;20048;-96
2023/05/03 03:25:07;;;;;;;9.43;4.10;;;;;;;5.14;75.27;102779.78;5017804;28;20105;-96
2023/05/03 03:27:33;;;;;;;9.60;4.10;;;;;;;5.12;75.45;102789.09;5005737;28;20025;-96
2023/05/03 03:29:58;;;;;;;10.15;4.57;;;;;;;5.10;75.63;102798.41;5017081;28;20386;-96
2023/05/03 03:32:24;;;;;;;6.45;3.67;;;;;;;5.08;75.96;102808.63;5016545;28;20047;-96
2023/05/03 03:34:50;;;;;;;6.80;4.03;;;;;;;5.08;76.04;102806.03;5015338;28;20033;-96
2023/05/03 03:37:16;;;;;;;8.38;4.43;;;;;;;5.06;75.56;102797.28;5018242;28;20041;-96
2023/05/03 03:39:41;;;;;;;9.23;4.13;;;;;;;5.08;75.71;102799.97;5018676;28;20024;-96
2023/05/03 03:42:09;;;;;;;7.05;4.38;;;;;;;5.04;75.31;102789.41;5012919;28;20554;-95
2023/05/03 03:44:34;;;;;;;7.72;4.38;;;;;;;5.07;75.97;102787.84;5035318;28;20059;-96
2023/05/03 03:47:00;;;;;;;7.30;4.10;;;;;;;5.08;75.55;102789.66;5031111;28;20025;-96
2023/05/03 03:49:25;;;;;;;7.43;3.97;;;;;;;5.05;75.74;102788.63;5013386;28;20029;-96
2023/05/03 03:51:50;;;;;;;9.93;6.13;;;;;;;5.00;75.62;102796.81;5014942;28;20075;-96
2023/05/03 03:54:18;;;;;;;11.02;4.50;;;;;;;4.96;75.95;102789.59;5015403;28;20021;-96
2023/05/03 03:56:43;;;;;;;7.68;4.60;;;;;;;4.91;75.72;102785.75;5016540;28;20494;-96
2023/05/03 03:59:09;;;;;;;11.73;6.68;;;;;;;4.91;75.71;102784.09;5014977;28;20032;-96
2023/05/03 04:01:34;;;;;;;15.90;9.43;;;;;;;4.90;77.07;102786.56;5018803;28;20053;-96
2023/05/03 04:04:00;;;;;;;11.63;5.57;;;;;;;4.90;76.31;102797.78;5010239;28;20479;-96
2023/05/03 04:06:25;;;;;;;8.77;4.80;;;;;;;4.89;76.38;102798.53;5016949;28;20501;-96
2023/05/03 04:08:51;;;;;;;8.73;5.20;;;;;;;4.83;76.33;102804.13;5012683;28;20025;-96
2023/05/03 04:11:16;;;;;;;9.43;5.22;;;;;;;4.87;75.99;102800.13;5016424;28;20060;-96
2023/05/03 04:13:42;;;;;;;8.75;4.88;;;;;;;4.87;76.30;102800.13;5030632;28;20032;-96
2023/05/03 04:16:07;;;;;;;8.18;4.80;;;;;;;4.85;75.93;102797.41;5010401;28;20493;-96
2023/05/03 04:18:33;;;;;;;8.80;5.05;;;;;;;4.84;76.00;102810.22;5013886;28;20848;-96
2023/05/03 04:20:58;;;;;;;10.32;4.57;;;;;;;4.82;76.21;102798.84;5011224;28;20021;-96
2023/05/03 04:23:23;;;;;;;10.43;4.85;;;;;;;4.82;76.90;102807.50;5017159;28;20053;-96
2023/05/03 04:25:49;;;;;;;8.45;4.70;;;;;;;4.80;76.67;102798.72;5033743;28;20033;-95
2023/05/03 04:28:14;;;;;;;10.63;4.75;;;;;;;4.78;77.00;102800.28;5007185;28;20030;-96
2023/05/03 04:30:42;;;;;;;9.77;4.63;;;;;;;4.75;76.92;102802.66;5012707;28;20021;-96
2023/05/03 04:33:11;;;;;;;9.05;4.68;;;;;;;4.73;77.19;102800.72;5020980;28;20088;-96
2023/05/03 04:35:37;;;;;;;11.25;4.75;;;;;;;4.76;76.83;102806.13;5026592;28;20044;-96
2023/05/03 04:38:03;;;;;;;30.70;16.05;;;;;;;4.76;77.42;102813.88;5031830;28;20025;-96
2023/05/03 04:40:28;;;;;;;11.95;6.60;;;;;;;4.77;76.88;102818.25;5019936;28;20013;-96
2023/05/03 04:42:54;;;;;;;9.68;5.85;;;;;;;4.78;77.41;102818.38;5045598;23;20059;-70
2023/05/03 04:45:20;;;;;;;8.05;5.20;;;;;;;4.78;77.17;102832.94;5043447;28;20052;-70
2023/05/03 04:47:46;;;;;;;10.73;4.68;;;;;;;4.77;77.31;102833.75;5144581;22;20071;-96
2023/05/03 04:50:15;;;;;;;8.15;4.80;;;;;;;4.76;77.86;102837.09;5061591;28;20021;-96
2023/05/03 04:52:40;;;;;;;7.60;4.63;;;;;;;4.78;77.78;102846.78;4985234;23;20078;-72
2023/05/03 04:55:06;;;;;;;9.30;4.85;;;;;;;4.78;78.22;102851.94;4977176;28;20038;-72
2023/05/03 04:57:33;;;;;;;10.82;5.03;;;;;;;4.79;78.45;102858.00;4976544;28;20594;-72
2023/05/03 04:59:58;;;;;;;8.57;5.05;;;;;;;4.78;78.80;102856.19;4973790;28;20038;-72
2023/05/03 05:02:25;;;;;;;7.95;4.80;;;;;;;4.80;78.90;102865.88;4974004;28;20031;-72
2023/05/03 05:04:50;;;;;;;9.00;4.93;;;;;;;4.82;79.26;102868.56;4974658;28;20030;-72
2023/05/03 05:07:16;;;;;;;7.25;4.57;;;;;;;4.80;79.09;102872.72;4975096;28;20034;-70
2023/05/03 05:09:42;;;;;;;9.73;5.05;;;;;;;4.83;79.64;102878.13;4973945;28;20023;-70
2023/05/03 05:12:07;;;;;;;9.80;5.10;;;;;;;4.85;79.58;102868.81;4973964;28;20140;-70
2023/05/03 05:14:33;;;;;;;9.40;5.07;;;;;;;4.86;79.57;102861.19;4977447;28;20464;-70
2023/05/03 05:16:58;;;;;;;7.75;4.68;;;;;;;4.85;80.01;102868.81;4976130;28;20498;-70
2023/05/03 05:19:24;;;;;;;10.93;5.30;;;;;;;4.85;79.60;102871.41;4974196;28;20026;-70
2023/05/03 05:21:52;;;;;;;8.60;4.70;;;;;;;4.88;80.41;102863.88;4976219;28;20026;-70
2023/05/03 05:24:18;;;;;;;9.00;4.88;;;;;;;4.93;80.15;102866.88;4975577;28;20068;-70
2023/05/03 05:26:43;;;;;;;10.95;5.28;;;;;;;4.96;80.17;102862.81;4977063;28;20516;-70
2023/05/03 05:29:09;;;;;;;13.65;5.30;;;;;;;5.01;80.57;102864.09;4975609;28;20375;-70
2023/05/03 05:31:35;;;;;;;8.68;4.90;;;;;;;5.03;80.32;102865.09;4975448;28;20350;-70
2023/05/03 05:34:00;;;;;;;9.48;4.75;;;;;;;5.05;80.63;102872.97;4976845;28;20117;-70
2023/05/03 05:36:26;;;;;;;12.13;4.90;;;;;;;5.09;80.61;102866.38;4976752;28;20168;-70
2023/05/03 05:38:51;;;;;;;9.45;4.78;;;;;;;5.15;80.78;102867.75;4976164;28;20030;-70
2023/05/03 05:41:16;;;;;;;10.57;4.93;;;;;;;5.20;80.63;102865.56;4977840;28;20030;-70
2023/05/03 05:43:42;;;;;;;7.93;4.50;;;;;;;5.25;80.79;102864.22;4977797;28;20034;-70
2023/05/03 05:46:07;;;;;;;8.95;4.43;;;;;;;5.30;80.97;102861.97;4976829;28;20035;-70
2023/05/03 05:48:33;;;;;;;8.82;4.80;;;;;;;5.33;81.08;102860.53;4971849;28;20994;-70
2023/05/03 05:50:58;;;;;;;9.90;4.57;;;;;;;5.36;81.15;102860.78;4971483;28;20054;-70
2023/05/03 05:53:23;;;;;;;7.47;4.85;;;;;;;5.41;81.09;102863.72;4972285;28;20034;-70
2023/05/03 05:55:49;;;;;;;8.52;4.97;;;;;;;5.48;82.13;102872.84;4972960;28;20492;-70
2023/05/03 05:58:14;;;;;;;8.10;4.88;;;;;;;5.53;81.80;102876.69;4971446;28;20505;-70
2023/05/03 06:00:40;;;;;;;11.35;5.13;;;;;;;5.56;82.15;102872.66;4973261;28;20029;-69
2023/05/03 06:03:06;;;;;;;10.25;4.95;;;;;;;5.62;81.68;102880.00;4969783;28;20031;-69
2023/05/03 06:05:31;;;;;;;13.05;5.28;;;;;;;5.71;81.29;102879.78;4971720;28;20027;-69
2023/05/03 06:07:56;;;;;;;10.38;5.47;;;;;;;5.79;80.69;102882.94;4973465;28;20031;-69
2023/05/03 06:10:22;;;;;;;9.30;4.90;;;;;;;5.84;81.10;102872.19;4972446;28;20037;-69
2023/05/03 06:12:47;;;;;;;7.85;4.97;;;;;;;5.95;81.46;102883.31;4972822;28;20062;-69
2023/05/03 06:15:13;;;;;;;10.50;5.40;;;;;;;6.07;81.85;102876.53;4971504;28;20639;-69
2023/05/03 06:17:38;;;;;;;10.52;5.60;;;;;;;6.22;82.07;102875.88;4972420;28;20038;-70
2023/05/03 06:20:04;;;;;;;9.05;5.00;;;;;;;6.35;81.17;102872.50;4970407;28;20479;-69
2023/05/03 06:22:29;;;;;;;9.88;5.72;;;;;;;6.48;81.18;102864.81;4972661;28;20473;-70
2023/05/03 06:24:56;;;;;;;9.32;5.43;;;;;;;6.60;80.85;102862.22;4972418;28;20113;-70
2023/05/03 06:27:21;;;;;;;10.90;5.22;;;;;;;6.75;81.23;102865.03;4971440;28;20489;-69
2023/05/03 06:29:48;;;;;;;11.98;5.85;;;;;;;6.88;80.29;102857.34;4972122;28;20041;-70
2023/05/03 06:32:14;;;;;;;9.45;5.40;;;;;;;7.02;78.58;102868.69;4969163;28;20125;-69
2023/05/03 06:34:39;;;;;;;7.63;5.20;;;;;;;7.19;78.93;102863.78;4969171;28;20080;-69
2023/05/03 06:37:05;;;;;;;10.80;5.50;;;;;;;7.34;77.10;102854.47;4972058;28;20109;-70
2023/05/03 06:39:30;;;;;;;10.00;5.45;;;;;;;7.51;78.86;102855.63;4970400;28;20891;-70
2023/05/03 06:41:55;;;;;;;10.23;5.32;;;;;;;7.64;77.88;102854.78;4969239;28;20667;-69
2023/05/03 06:44:21;;;;;;;10.50;5.47;;;;;;;7.77;77.06;102854.81;4971892;28;20058;-69
2023/05/03 06:46:46;;;;;;;8.35;5.32;;;;;;;7.93;75.09;102848.06;4971769;28;20960;-70
2023/05/03 06:49:11;;;;;;;11.48;5.93;;;;;;;8.08;75.85;102846.50;4973775;28;20034;-70
2023/05/03 06:51:37;;;;;;;9.35;5.47;;;;;;;8.25;74.85;102841.50;4968156;28;20054;-70
2023/05/03 06:54:05;;;;;;;8.32;5.60;;;;;;;8.34;74.36;102847.28;4971631;28;20027;-69
2023/05/03 06:56:35;;;;;;;8.68;5.40;;;;;;;8.44;74.64;102844.50;4971234;28;20029;-69
2023/05/03 06:59:02;;;;;;;9.05;5.30;;;;;;;8.53;74.33;102839.94;4971143;28;20069;-69
2023/05/03 07:01:27;;;;;;;9.27;4.78;;;;;;;8.55;71.90;102834.84;4970543;28;20035;-69
2023/05/03 07:03:53;;;;;;;8.23;4.30;;;;;;;8.57;71.63;102834.94;4972046;28;20033;-69
2023/05/03 07:06:18;;;;;;;9.73;4.85;;;;;;;8.67;72.78;102839.91;4969537;28;20030;-69
2023/05/03 07:08:44;;;;;;;8.93;4.80;;;;;;;8.78;72.54;102832.81;4972366;28;20588;-69
2023/05/03 07:11:09;;;;;;;10.60;5.28;;;;;;;8.94;72.11;102847.66;4967770;28;20071;-69
2023/05/03 07:13:35;;;;;;;8.20;5.43;;;;;;;9.04;70.11;102850.03;4968468;28;20112;-70
2023/05/03 07:16:00;;;;;;;10.25;5.30;;;;;;;9.05;70.46;102847.53;4970805;28;20057;-69
2023/05/03 07:18:25;;;;;;;9.10;4.78;;;;;;;9.12;71.33;102848.78;4969948;28;20035;-69
2023/05/03 07:20:51;;;;;;;9.20;5.25;;;;;;;9.33;71.24;102850.94;4967419;28;20050;-69
2023/05/03 07:23:16;;;;;;;11.25;5.85;;;;;;;9.47;71.84;102846.53;4969375;28;20565;-69
2023/05/03 07:25:42;;;;;;;10.15;4.80;;;;;;;9.65;70.22;102844.16;4973103;28;20030;-69
2023/05/03 07:28:07;;;;;;;12.00;5.32;;;;;;;9.77;69.39;102851.81;4975090;28;20026;-69
2023/05/03 07:30:33;;;;;;;10.18;5.53;;;;;;;9.85;70.21;102842.75;4974293;28;20026;-69
2023/05/03 07:32:58;;;;;;;7.10;4.85;;;;;;;9.95;69.52;102836.34;4975484;28;20091;-69
2023/05/03 07:35:25;;;;;;;8.85;5.28;;;;;;;10.05;67.96;102838.69;4974790;28;20516;-69
2023/05/03 07:37:50;;;;;;;10.00;5.43;;;;;;;10.04;67.48;102832.59;4973974;28;20092;-69
2023/05/03 07:40:16;;;;;;;8.95;5.15;;;;;;;10.07;69.98;102826.66;4968917;28;20474;-69
2023/05/03 07:42:41;;;;;;;10.65;5.22;;;;;;;10.13;67.68;102821.78;4969057;28;20042;-69
2023/05/03 07:45:07;;;;;;;7.82;4.45;;;;;;;10.23;68.00;102826.72;4969948;28;20053;-69
2023/05/03 07:47:36;;;;;;;8.90;4.95;;;;;;;10.33;65.89;102820.31;4969474;28;20038;-70
2023/05/03 07:50:03;;;;;;;8.25;5.00;;;;;;;10.38;65.65;102818.00;4967970;28;20037;-70
2023/05/03 07:52:29;;;;;;;8.98;4.88;;;;;;;10.44;64.29;102821.88;4974519;28;20062;-69
2023/05/03 07:54:54;;;;;;;9.45;4.60;;;;;;;10.49;66.29;102811.69;4976749;28;20039;-69
2023/05/03 07:57:22;;;;;;;9.20;5.00;;;;;;;10.61;65.70;102809.75;4976905;28;20038;-69
2023/05/03 07:59:47;;;;;;;8.43;4.72;;;;;;;10.73;66.40;102816.44;4975431;28;20509;-69
2023/05/03 08:02:12;;;;;;;8.85;4.88;;;;;;;10.88;63.86;102801.66;4973867;28;20052;-70
2023/05/03 08:04:37;;;;;;;7.63;4.30;;;;;;;10.95;64.33;102798.56;4970214;28;20153;-69
2023/05/03 08:07:03;;;;;;;7.90;4.32;;;;;;;11.06;63.99;102793.00;4974072;28;20486;-69
2023/05/03 08:09:29;;;;;;;9.27;4.45;;;;;;;11.18;63.65;102795.38;4974611;28;20109;-69
2023/05/03 08:11:55;;;;;;;6.40;3.92;;;;;;;11.22;59.76;102782.56;4973384;28;20501;-69
2023/05/03 08:14:21;;;;;;;6.68;3.75;;;;;;;11.21;58.62;102785.09;4975432;28;20057;-69
2023/05/03 08:16:47;;;;;;;7.25;4.18;;;;;;;11.13;58.28;102776.88;4968621;28;20026;-69
2023/05/03 08:21:42;;;;;;;7.53;4.20;;;;;;;11.21;59.12;102782.47;5028273;28;20050;-70
2023/05/03 08:24:08;;;;;;;12.32;3.42;;;;;;;11.30;58.58;102783.84;5034946;28;20029;-70
2023/05/03 08:26:34;;;;;;;9.27;3.90;;;;;;;11.44;57.98;102781.06;5034448;28;20241;-70
2023/05/03 08:29:02;;;;;;;6.47;3.35;;;;;;;11.54;56.84;102780.69;5034334;28;20159;-69
2023/05/03 08:31:27;;;;;;;7.38;4.10;;;;;;;11.62;58.40;102770.66;5033921;28;20084;-70
2023/05/03 08:33:52;;;;;;;6.72;4.00;;;;;;;11.73;60.49;102772.09;5033050;28;20591;-70
2023/05/03 08:36:18;;;;;;;7.10;3.92;;;;;;;11.89;60.67;102779.00;5032980;28;20028;-70
2023/05/03 08:38:43;;;;;;;6.53;4.07;;;;;;;12.02;59.80;102775.28;5035000;28;20429;-70
2023/05/03 08:41:17;;;;;;;9.68;4.28;;;;;;;12.05;60.11;102771.91;5034996;28;20021;-70
2023/05/03 08:43:45;;;;;;;7.93;4.15;;;;;;;12.08;55.97;102774.66;5033168;28;20033;-70
2023/05/03 08:46:12;;;;;;;9.75;4.20;;;;;;;12.13;57.67;102763.63;5033646;28;20053;-70
2023/05/03 08:48:37;;;;;;;10.38;4.18;;;;;;;12.38;58.48;102769.13;5034337;28;20065;-70
2023/05/03 08:51:04;;;;;;;7.85;3.95;;;;;;;12.44;58.13;102762.47;5034049;28;20154;-70
2023/05/03 08:53:29;;;;;;;7.10;4.30;;;;;;;12.56;57.58;102763.84;5035105;28;20416;-70
2023/05/03 08:55:55;;;;;;;7.85;4.05;;;;;;;12.69;57.31;102772.34;5031189;28;20033;-70
2023/05/03 08:58:21;;;;;;;7.07;4.10;;;;;;;12.87;55.96;102774.00;5033871;28;20041;-70
2023/05/03 09:00:46;;;;;;;8.20;4.00;;;;;;;12.95;54.53;102790.06;5032687;28;20036;-70
2023/05/03 09:03:11;;;;;;;9.20;4.20;;;;;;;12.90;51.62;102779.38;5035506;28;20475;-70
2023/05/03 09:05:42;;;;;;;7.15;4.25;;;;;;;12.83;53.51;102780.84;5034516;28;20032;-70
2023/05/03 09:08:11;;;;;;;7.43;4.05;;;;;;;12.90;53.35;102786.34;5031899;28;20025;-70
2023/05/03 09:10:40;;;;;;;6.83;4.03;;;;;;;13.03;54.54;102779.13;5033485;28;20103;-70
2023/05/03 09:13:06;;;;;;;;;;;;;;;13.23;57.02;102773.84;5033750;28;20297;-70
2023/05/03 09:15:32;;;;;;;7.50;3.90;;;;;;;13.29;53.24;102776.75;5034223;28;20015;-70
2023/05/03 09:18:19;;;;;;;9.77;4.53;;;;;;;13.33;53.59;102781.28;5034852;28;20629;-70
2023/05/03 09:20:52;;;;;;;9.00;4.28;;;;;;;13.39;50.23;102772.84;5018625;28;20045;-70
2023/05/03 09:23:37;;;;;;;7.00;4.10;;;;;;;13.60;56.71;102775.50;5014617;28;20033;-70
2023/05/03 09:26:03;;;;;;;7.40;4.20;;;;;;;13.88;53.13;102776.63;5014497;28;20239;-68
2023/05/03 09:28:28;;;;;;;6.47;4.07;;;;;;;13.86;51.68;102773.03;5015244;28;20548;-67
2023/05/03 09:31:05;;;;;;;7.40;4.10;;;;;;;13.80;52.05;102771.09;5015336;28;20481;-67
2023/05/03 09:33:31;;;;;;;8.18;3.90;;;;;;;13.65;49.98;102776.56;5015504;28;20551;-67
2023/05/03 09:36:02;;;;;;;8.30;4.35;;;;;;;13.57;51.10;102771.00;5014485;28;20055;-67
2023/05/03 09:38:31;;;;;;;8.02;4.13;;;;;;;13.71;51.19;102765.44;5013766;28;20021;-67
2023/05/03 09:40:56;;;;;;;10.37;4.90;;;;;;;13.74;50.13;102765.56;5015215;28;20432;-67
2023/05/03 09:43:22;;;;;;;8.40;3.95;;;;;;;13.76;48.98;102765.63;5014724;28;20029;-67
2023/05/03 09:45:47;;;;;;;7.30;4.10;;;;;;;13.86;50.48;102760.84;5014679;28;20080;-67
2023/05/03 09:48:12;;;;;;;9.10;4.40;;;;;;;13.72;49.72;102762.88;5014690;28;20034;-67
2023/05/03 09:50:39;;;;;;;7.35;4.18;;;;;;;13.68;50.36;102760.09;5013765;28;20021;-67
2023/05/03 09:53:05;;;;;;;7.47;4.25;;;;;;;13.65;49.99;102760.84;5016019;28;20033;-68
2023/05/03 09:55:39;;;;;;;7.95;4.40;;;;;;;13.77;50.38;102746.47;5014085;28;20025;-68
2023/05/03 09:58:05;;;;;;;7.93;4.65;;;;;;;13.86;49.39;102755.59;5016838;28;20025;-68
2023/05/03 10:00:35;;;;;;;6.47;4.40;;;;;;;14.03;52.08;102751.06;5015035;28;20021;-68
2023/05/03 10:03:01;;;;;;;;;;;;;;;14.22;53.20;102742.19;5014693;28;20025;-68
2023/05/03 10:05:30;;;;;;;7.50;4.20;;;;;;;14.49;50.16;102748.44;5015045;28;20661;-68
2023/05/03 10:07:59;;;;;;;9.38;4.40;;;;;;;14.57;50.55;102750.50;5016040;28;20021;-68
2023/05/03 10:10:31;;;;;;;8.18;4.40;;;;;;;14.64;50.07;102746.41;5015900;28;20109;-68
2023/05/03 10:12:58;;;;;;;6.43;4.13;;;;;;;14.84;48.53;102743.63;5016964;28;20030;-68
2023/05/03 10:15:26;;;;;;;7.53;4.65;;;;;;;15.09;50.13;102741.06;5015571;28;20033;-68
2023/05/03 10:17:53;;;;;;;5.95;4.07;;;;;;;15.43;51.52;102733.47;5014610;28;20469;-68
2023/05/03 10:20:27;;;;;;;7.95;4.60;;;;;;;15.67;47.08;102737.72;5039141;22;20142;-95
2023/05/03 10:23:04;;;;;;;7.80;4.40;;;;;;;15.71;49.82;102735.25;5030640;28;20463;-96
2023/05/03 10:25:33;;;;;;;9.13;4.60;;;;;;;15.89;49.03;102741.97;5029831;28;20151;-95
2023/05/03 10:28:02;;;;;;;8.02;4.47;;;;;;;16.10;49.65;102733.88;5028281;28;20059;-95
2023/05/03 10:30:32;;;;;;;8.25;4.43;;;;;;;16.37;47.38;102752.25;5026229;28;20569;-94
2023/05/03 10:32:58;;;;;;;8.55;4.60;;;;;;;16.60;48.09;102742.41;5031598;28;20029;-96
2023/05/03 10:35:28;;;;;;;8.20;4.85;;;;;;;16.77;47.21;102742.91;5031946;28;20017;-95
2023/05/03 10:37:57;;;;;;;9.35;4.63;;;;;;;17.02;49.11;102748.91;5160704;23;20062;-69
2023/05/03 10:42:55;;;;;;;6.43;4.30;;;;;;;17.21;45.39;102742.38;5131442;22;20061;-68
2023/05/03 10:58:15;;;;;;;7.03;4.50;;;;;;;17.40;42.25;102740.22;5092388;22;20114;-68
2023/05/03 11:05:41;;;;;;;8.32;4.97;;;;;;;17.60;44.27;102736.34;5215590;22;20054;-68
2023/05/03 11:08:18;;;;;;;8.68;4.70;;;;;;;17.50;43.40;102735.22;5042925;22;20518;-96
2023/05/03 11:11:22;;;;;;;9.02;5.07;;;;;;;17.61;45.96;102726.69;5016287;28;20029;-96
2023/05/03 11:13:50;;;;;;;7.38;4.75;;;;;;;17.68;43.09;102724.25;5044813;23;20141;-96
2023/05/03 11:16:17;;;;;;;7.07;4.80;;;;;;;17.65;42.20;102721.53;5028084;28;20065;-96
2023/05/03 11:18:55;;;;;;;8.77;5.18;;;;;;;17.51;42.98;102715.94;5022675;28;20091;-96
2023/05/03 11:21:21;;;;;;;8.30;4.80;;;;;;;17.34;42.06;102714.63;5012110;28;20018;-96
2023/05/03 11:23:49;;;;;;;9.23;5.13;;;;;;;17.21;41.09;102709.00;5017277;28;20030;-96
2023/05/03 11:26:15;;;;;;;9.80;4.87;;;;;;;17.26;42.73;102709.13;5015446;28;20030;-96
2023/05/03 11:28:41;;;;;;;7.95;4.97;;;;;;;17.33;43.09;102697.88;5164791;22;20115;-70
2023/05/03 11:31:08;;;;;;;7.80;4.57;;;;;;;17.30;44.78;102699.56;5242223;22;20045;-69
2023/05/03 11:33:36;;;;;;;7.60;4.90;;;;;;;17.18;43.69;102710.69;5022589;28;20033;-69
2023/05/03 11:36:08;;;;;;;6.47;4.78;;;;;;;16.94;44.95;102703.03;5021610;28;20030;-70
2023/05/03 11:38:35;;;;;;;7.35;4.95;;;;;;;16.86;43.53;102701.03;5024422;28;20025;-69
2023/05/03 11:43:32;;;;;;;7.93;4.90;;;;;;;16.81;46.31;102700.00;5094498;22;20057;-96
2023/05/03 11:45:58;;;;;;;8.35;5.20;;;;;;;16.76;43.28;102696.38;5032682;28;20029;-96
2023/05/03 11:48:26;;;;;;;7.03;5.03;;;;;;;16.80;43.78;102685.06;5039613;28;20018;-96
2023/05/03 11:50:54;;;;;;;7.65;5.18;;;;;;;17.02;46.46;102678.66;5046449;28;20026;-96
2023/05/03 11:53:23;;;;;;;8.52;4.85;;;;;;;17.19;44.60;102676.47;5020313;28;20053;-96